This is the latest recevied weather packets stored in our database for station/object N9ALD. If no packets are shown the sender has not sent any weather packets the latest 10 day(s).
| Time | Temp. | Humidity | Pressure | Rain* | Wind** | Luminosity | Snow |
|---|---|---|---|---|---|---|---|
| 1777489790 | 17.22° C | 57% | 1009.3 hPa | 0 mm | - | 291 W/m² | - |
| 1777489488 | 16.67° C | 61% | 1009.4 hPa | 0 mm | - | 828 W/m² | - |
| 1777489184 | 16.67° C | 58% | 1009.5 hPa | 0 mm | - | 378 W/m² | - |
| 1777488881 | 16.67° C | 57% | 1009.4 hPa | 0 mm | - | 271 W/m² | - |
| 1777488578 | 16.67° C | 61% | 1009.4 hPa | 0 mm | - | 315 W/m² | - |
| 1777488276 | 16.11° C | 60% | 1009.2 hPa | 0 mm | - | 896 W/m² | - |
| 1777487975 | 16.11° C | 62% | 1009.3 hPa | 0 mm | - | 913 W/m² | - |
| 1777487672 | 16.67° C | 59% | 1009.2 hPa | 0 mm | - | 130 W/m² | - |
| 1777487368 | 16.67° C | 61% | 1009 hPa | 0 mm | - | 194 W/m² | - |
| 1777487067 | 16.67° C | 63% | 1009 hPa | 0 mm | - | 646 W/m² | - |
| 1777486762 | 16.67° C | 62% | 1009.1 hPa | 0 mm | - | 223 W/m² | - |
| 1777486460 | 17.22° C | 61% | 1008.8 hPa | 0 mm | - | 254 W/m² | - |
| 1777486157 | 16.67° C | 62% | 1008.8 hPa | 0 mm | - | 889 W/m² | - |
| 1777485855 | 16.67° C | 60% | 1008.9 hPa | 0 mm | - | 218 W/m² | - |
| 1777485555 | 16.67° C | 59% | 1008.8 hPa | 0 mm | - | 295 W/m² | - |
| 1777485251 | 16.67° C | 62% | 1009 hPa | 0 mm | - | 802 W/m² | - |
| 1777484948 | 16.67° C | 62% | 1008.9 hPa | 0 mm | - | 219 W/m² | - |
| 1777484645 | 17.22° C | 62% | 1008.8 hPa | 0 mm | - | 173 W/m² | - |
| 1777484341 | 17.22° C | 64% | 1009 hPa | 0 mm | - | 891 W/m² | - |
| 1777484037 | 17.22° C | 61% | 1008.8 hPa | 0 mm | - | 925 W/m² | - |
| 1777483734 | 17.22° C | 64% | 1008.9 hPa | 0 mm | - | 903 W/m² | - |
| 1777483430 | 17.22° C | 62% | 1008.9 hPa | 0 mm | - | 859 W/m² | - |
| 1777483124 | 17.22° C | 65% | 1008.8 hPa | 0 mm | - | 842 W/m² | - |
| 1777482822 | 16.67° C | 67% | 1008.8 hPa | 0 mm | - | 831 W/m² | - |
| 1777482518 | 16.67° C | 67% | 1008.7 hPa | 0 mm | - | 784 W/m² | - |
* Rain latest hour (hover to see other rain measurements)
** Current wind speed in m/s (hover to see current wind gust speed)